Time;durP1;ratioP1;P1;durP2;ratioP2;P2;SDS_P1;SDS_P2;PMS_P1;PMS_P2;Temp;Humidity;BMP_temperature;BMP_pressure;BME280_temperature;BME280_humidity;BME280_pressure;Samples;Min_cycle;Max_cycle;Signal;HPM_P1;HPM_P2
2023/01/03 00:02:29;;;;;;;;;;;20.70;47.00;;;;;;6094057;29;20044;-48
2023/01/03 00:05:33;;;;;;;1.77;0.60;;;20.60;47.10;;;;;;6091939;29;19937;-48
2023/01/03 00:08:34;;;;;;;1.42;0.88;;;20.70;47.10;;;;;;6091865;29;20398;-49
2023/01/03 00:14:54;;;;;;;1.20;0.60;;;20.60;46.90;;;;;;6075702;29;20052;-47
2023/01/03 00:17:56;;;;;;;1.38;0.60;;;20.50;46.90;;;;;;6091594;29;20044;-49
2023/01/03 00:21:02;;;;;;;;;;;20.60;47.00;;;;;;6088965;29;20434;-49
2023/01/03 00:24:04;;;;;;;2.00;0.60;;;20.70;47.10;;;;;;6088534;29;19931;-49
2023/01/03 00:27:06;;;;;;;1.70;0.80;;;20.60;46.90;;;;;;6071962;29;20048;-46
2023/01/03 00:30:08;;;;;;;0.68;0.50;;;20.80;47.00;;;;;;6089076;29;20048;-49
2023/01/03 00:33:09;;;;;;;0.80;0.40;;;20.70;47.00;;;;;;6089642;29;20122;-49
2023/01/03 00:36:11;;;;;;;1.08;0.50;;;20.70;47.00;;;;;;6093219;29;20049;-45
2023/01/03 00:39:12;;;;;;;;;;;20.70;47.00;;;;;;6097753;29;20075;-50
2023/01/03 00:42:14;;;;;;;1.05;0.47;;;20.80;47.00;;;;;;6099238;29;19938;-49
2023/01/03 00:45:16;;;;;;;1.10;0.60;;;20.60;46.90;;;;;;6099764;29;20040;-50
2023/01/03 00:48:21;;;;;;;1.40;0.45;;;20.60;46.80;;;;;;6095145;29;20048;-46
2023/01/03 00:51:24;;;;;;;0.73;0.50;;;20.60;46.70;;;;;;6092078;29;20112;-48
2023/01/03 00:54:26;;;;;;;1.45;0.68;;;20.70;46.70;;;;;;6090060;29;20073;-49
2023/01/03 00:57:28;;;;;;;1.00;0.40;;;20.70;46.60;;;;;;6087273;29;20123;-48
2023/01/03 01:00:29;;;;;;;1.02;0.50;;;20.70;46.60;;;;;;6090700;29;20052;-47
2023/01/03 01:03:31;;;;;;;1.23;0.50;;;20.70;46.50;;;;;;6087555;29;20056;-45
2023/01/03 01:06:34;;;;;;;0.88;0.57;;;20.70;46.50;;;;;;6087318;29;20081;-46
2023/01/03 01:09:37;;;;;;;1.58;0.68;;;20.70;46.40;;;;;;6070540;29;20067;-50
2023/01/03 01:12:39;;;;;;;0.95;0.60;;;20.70;46.40;;;;;;6071562;29;20515;-47
2023/01/03 01:15:40;;;;;;;1.08;0.60;;;20.70;46.40;;;;;;6089945;29;20051;-46
2023/01/03 01:18:44;;;;;;;1.08;0.70;;;20.80;46.70;;;;;;6087773;29;20045;-49
2023/01/03 01:21:45;;;;;;;1.10;0.60;;;20.60;46.20;;;;;;6087663;29;20049;-49
2023/01/03 01:24:47;;;;;;;1.08;0.57;;;20.70;46.30;;;;;;6088308;29;20524;-50
2023/01/03 01:27:49;;;;;;;;;;;20.70;46.20;;;;;;6085473;29;20052;-47
2023/01/03 01:30:50;;;;;;;;;;;20.50;46.20;;;;;;6084010;29;19924;-45
2023/01/03 01:33:53;;;;;;;1.10;0.40;;;20.80;47.00;;;;;;6086662;29;19927;-47
2023/01/03 01:36:55;;;;;;;1.48;1.00;;;20.50;46.20;;;;;;6085697;29;20521;-46
2023/01/03 01:39:56;;;;;;;1.33;0.75;;;20.30;46.00;;;;;;6068201;29;20045;-48
2023/01/03 01:46:28;;;;;;;1.13;0.45;;;20.70;46.10;;;;;;6084545;29;20093;-47
2023/01/03 01:49:30;;;;;;;1.17;0.40;;;20.40;45.90;;;;;;6071218;29;20059;-47
2023/01/03 01:52:35;;;;;;;1.10;0.47;;;20.70;46.10;;;;;;6087098;29;20056;-49
2023/01/03 01:55:42;;;;;;;1.30;0.63;;;20.80;46.10;;;;;;6071610;29;20041;-47
2023/01/03 01:58:46;;;;;;;1.33;0.40;;;20.70;46.00;;;;;;6088541;29;20053;-47
2023/01/03 02:01:49;;;;;;;0.90;0.40;;;20.60;45.90;;;;;;6090683;29;20049;-50
2023/01/03 02:04:54;;;;;;;0.60;0.32;;;20.50;45.80;;;;;;6090141;29;20055;-49
2023/01/03 02:07:55;;;;;;;2.22;0.55;;;20.70;45.90;;;;;;6077097;29;20041;-50
2023/01/03 02:11:07;;;;;;;;;;;20.70;45.90;;;;;;6094574;29;20052;-50
2023/01/03 02:14:25;;;;;;;1.10;0.50;;;20.50;45.90;;;;;;6091149;29;19923;-51
2023/01/03 02:17:39;;;;;;;0.75;0.50;;;20.60;45.80;;;;;;6074983;29;20044;-49
2023/01/03 02:21:01;;;;;;;1.65;0.65;;;20.70;45.90;;;;;;6087395;29;20434;-48
2023/01/03 02:24:30;;;;;;;1.65;0.55;;;20.60;45.80;;;;;;6082952;29;20441;-50
2023/01/03 02:27:57;;;;;;;1.48;0.57;;;20.50;45.70;;;;;;6067103;29;20056;-46
2023/01/03 02:31:04;;;;;;;1.15;0.55;;;20.70;45.80;;;;;;6085730;29;20493;-46
2023/01/03 02:34:20;;;;;;;0.85;0.40;;;20.30;45.60;;;;;;6085646;29;20048;-48
2023/01/03 02:37:29;;;;;;;1.05;0.50;;;20.50;45.60;;;;;;6070461;29;20052;-50
2023/01/03 02:40:37;;;;;;;0.70;0.50;;;20.60;45.70;;;;;;6087643;29;20044;-47
2023/01/03 02:43:45;;;;;;;0.80;0.20;;;20.60;45.60;;;;;;6090945;29;20391;-47
2023/01/03 02:46:51;;;;;;;1.08;0.52;;;20.60;45.60;;;;;;6071848;29;20081;-50
2023/01/03 02:49:54;;;;;;;0.73;0.50;;;20.50;45.50;;;;;;6091398;29;20112;-47
2023/01/03 02:53:01;;;;;;;0.40;0.30;;;20.50;45.50;;;;;;6090891;29;20056;-44
2023/01/03 02:56:06;;;;;;;0.63;0.50;;;20.70;45.60;;;;;;6088878;29;20100;-46
2023/01/03 02:59:13;;;;;;;0.60;0.30;;;20.60;45.40;;;;;;6087091;29;20080;-47
2023/01/03 03:02:18;;;;;;;0.55;0.40;;;20.40;45.30;;;;;;6069157;29;20048;-48
2023/01/03 03:05:25;;;;;;;0.63;0.52;;;20.60;45.30;;;;;;6069208;29;20048;-49
2023/01/03 03:08:27;;;;;;;0.38;0.30;;;20.70;45.40;;;;;;6085558;29;20545;-47
2023/01/03 03:14:49;;;;;;;0.65;0.30;;;20.50;45.80;;;;;;6085803;29;20052;-50
2023/01/03 03:17:55;;;;;;;0.40;0.20;;;20.50;45.10;;;;;;6085842;29;20446;-47
2023/01/03 03:30:56;;;;;;;0.60;0.38;;;20.60;44.90;;;;;;6085165;29;20040;-47
2023/01/03 03:34:05;;;;;;;0.52;0.30;;;20.70;45.00;;;;;;6068046;29;20045;-48
2023/01/03 03:37:11;;;;;;;0.30;0.20;;;20.40;44.70;;;;;;6084771;29;20458;-49
2023/01/03 03:46:53;;;;;;;0.35;0.30;;;20.50;44.70;;;;;;6070280;29;20055;-49
2023/01/03 03:50:01;;;;;;;0.17;0.10;;;20.50;44.60;;;;;;6085101;29;20045;-47
2023/01/03 03:53:07;;;;;;;0.40;0.32;;;20.80;44.70;;;;;;6069050;29;20055;-48
2023/01/03 03:56:12;;;;;;;0.28;0.28;;;20.70;44.70;;;;;;6068906;29;20048;-46
2023/01/03 03:59:18;;;;;;;0.20;0.20;;;20.30;44.50;;;;;;6068885;29;20052;-49
2023/01/03 04:02:21;;;;;;;0.28;0.20;;;20.60;44.60;;;;;;6085049;29;20100;-47
2023/01/03 04:05:26;;;;;;;0.20;0.20;;;20.50;44.50;;;;;;6084746;29;20144;-47
2023/01/03 04:08:28;;;;;;;0.43;0.25;;;20.70;44.50;;;;;;6086438;29;20047;-50
2023/01/03 04:11:30;;;;;;;0.73;0.40;;;20.60;44.50;;;;;;6087122;29;20037;-49
2023/01/03 04:14:31;;;;;;;;;;;20.60;44.50;;;;;;6075760;29;20037;-49
2023/01/03 04:17:33;;;;;;;0.47;0.35;;;20.20;44.50;;;;;;6093759;29;19924;-48
2023/01/03 04:20:35;;;;;;;0.65;0.40;;;20.40;44.50;;;;;;6094260;29;20100;-48
2023/01/03 04:23:36;;;;;;;0.20;0.10;;;20.40;44.50;;;;;;6094693;29;20049;-48
2023/01/03 04:26:38;;;;;;;0.55;0.40;;;20.50;44.50;;;;;;6091938;29;20413;-48
2023/01/03 04:29:40;;;;;;;0.60;0.32;;;20.60;44.50;;;;;;6092368;29;20040;-47
2023/01/03 04:32:41;;;;;;;;;;;20.60;44.50;;;;;;6089220;29;20052;-49
2023/01/03 04:35:43;;;;;;;0.50;0.20;;;20.30;44.50;;;;;;6089057;29;19927;-48
2023/01/03 04:38:44;;;;;;;0.32;0.22;;;20.40;44.40;;;;;;6088925;29;20053;-48
2023/01/03 04:41:46;;;;;;;0.60;0.30;;;20.50;44.50;;;;;;6088162;29;20053;-46
2023/01/03 04:44:47;;;;;;;0.20;0.20;;;20.60;44.50;;;;;;6089648;29;20402;-47
2023/01/03 04:47:49;;;;;;;0.47;0.20;;;20.30;44.30;;;;;;6089339;29;20053;-49
2023/01/03 04:50:53;;;;;;;0.75;0.20;;;20.50;44.50;;;;;;6088194;29;20057;-46
2023/01/03 04:53:54;;;;;;;0.73;0.30;;;20.50;44.40;;;;;;6087642;29;20049;-48
2023/01/03 04:56:56;;;;;;;;;;;20.50;44.40;;;;;;6089345;29;20041;-46
2023/01/03 04:59:57;;;;;;;1.00;0.40;;;20.30;44.50;;;;;;6089930;29;19987;-48
2023/01/03 05:02:58;;;;;;;0.40;0.30;;;20.60;44.50;;;;;;6090196;29;20040;-50
2023/01/03 05:06:02;;;;;;;1.23;0.52;;;20.50;44.40;;;;;;6089702;29;20053;-49
2023/01/03 05:09:04;;;;;;;0.55;0.40;;;20.30;44.30;;;;;;6073892;29;20048;-50
2023/01/03 05:12:05;;;;;;;;;;;20.40;44.30;;;;;;6090196;29;20092;-50
2023/01/03 05:15:07;;;;;;;0.32;0.20;;;20.50;44.50;;;;;;6089587;29;19924;-46
2023/01/03 05:18:09;;;;;;;1.13;0.47;;;20.50;44.40;;;;;;6090152;29;20451;-46
2023/01/03 05:27:45;;;;;;;1.00;0.40;;;20.50;44.30;;;;;;6091197;29;20048;-48
2023/01/03 05:30:46;;;;;;;0.80;0.43;;;20.20;44.20;;;;;;6091505;29;20179;-48
2023/01/03 05:33:48;;;;;;;0.82;0.30;;;20.40;44.30;;;;;;6090977;29;20041;-47
2023/01/03 05:36:50;;;;;;;;;;;20.50;44.40;;;;;;6091191;29;20049;-48
2023/01/03 05:39:51;;;;;;;;;;;20.40;44.50;;;;;;6091572;29;19923;-49
2023/01/03 05:42:53;;;;;;;0.55;0.30;;;20.50;44.60;;;;;;6090448;29;19927;-49
2023/01/03 05:45:54;;;;;;;0.50;0.22;;;20.40;44.40;;;;;;6090858;29;20049;-49
2023/01/03 05:48:55;;;;;;;;;;;20.40;44.40;;;;;;6091090;29;20045;-49
2023/01/03 05:51:57;;;;;;;0.68;0.30;;;20.40;44.60;;;;;;6091129;29;19924;-48
2023/01/03 05:54:59;;;;;;;1.10;0.50;;;20.30;44.50;;;;;;6091130;29;20045;-47
2023/01/03 05:58:01;;;;;;;0.73;0.40;;;20.30;44.40;;;;;;6091813;29;20048;-47
2023/01/03 06:01:07;;;;;;;0.40;0.30;;;20.30;44.40;;;;;;6091620;29;20041;-50
2023/01/03 06:04:09;;;;;;;1.05;0.40;;;20.50;44.50;;;;;;6093441;29;20565;-45
2023/01/03 06:07:11;;;;;;;0.73;0.32;;;20.20;44.30;;;;;;6096213;29;20088;-49
2023/01/03 06:10:13;;;;;;;0.70;0.40;;;20.40;44.40;;;;;;6095778;29;20052;-48
2023/01/03 06:13:14;;;;;;;;;;;20.50;44.50;;;;;;6095739;29;20434;-46
2023/01/03 06:19:34;;;;;;;1.05;0.40;;;20.40;44.50;;;;;;6095332;29;20085;-49
2023/01/03 06:22:36;;;;;;;0.47;0.20;;;20.30;44.40;;;;;;6095497;29;20052;-48
2023/01/03 06:25:37;;;;;;;0.30;0.22;;;20.20;44.40;;;;;;6089914;29;20076;-46
2023/01/03 06:28:38;;;;;;;0.30;0.20;;;20.40;44.50;;;;;;6090658;29;20096;-49
2023/01/03 06:31:40;;;;;;;0.50;0.20;;;20.50;44.50;;;;;;6089661;29;20068;-47
2023/01/03 06:34:42;;;;;;;0.30;0.20;;;20.40;44.50;;;;;;6090546;29;20057;-47
2023/01/03 06:37:44;;;;;;;0.32;0.22;;;20.40;44.50;;;;;;6090552;29;20049;-45
2023/01/03 06:40:47;;;;;;;0.20;0.20;;;20.40;44.50;;;;;;6089907;29;20044;-44
2023/01/03 06:43:48;;;;;;;0.55;0.50;;;20.40;44.40;;;;;;6088654;29;20072;-45
2023/01/03 06:53:23;;;;;;;0.68;0.30;;;20.40;44.50;;;;;;6087250;29;20046;-49
2023/01/03 06:56:25;;;;;;;0.50;0.40;;;20.50;44.50;;;;;;6086863;29;20100;-48
2023/01/03 06:59:26;;;;;;;0.47;0.30;;;20.20;44.30;;;;;;6087360;29;20489;-48
2023/01/03 07:02:28;;;;;;;0.82;0.50;;;20.10;44.30;;;;;;6068174;29;20040;-48
2023/01/03 07:05:29;;;;;;;0.63;0.50;;;20.50;44.60;;;;;;6085655;29;20053;-45
2023/01/03 07:08:31;;;;;;;0.52;0.20;;;20.30;44.50;;;;;;6086483;29;20048;-47
2023/01/03 07:11:34;;;;;;;0.63;0.40;;;20.50;44.50;;;;;;6087522;29;20048;-50
2023/01/03 07:14:35;;;;;;;0.55;0.30;;;18.60;43.60;;;;;;6087341;29;20056;-49
2023/01/03 07:17:37;;;;;;;0.50;0.43;;;20.30;44.50;;;;;;6088430;29;20128;-49
2023/01/03 07:20:41;;;;;;;0.47;0.20;;;20.40;44.60;;;;;;6089158;29;20410;-50
2023/01/03 07:23:43;;;;;;;0.40;0.30;;;20.50;44.60;;;;;;6089777;29;20044;-47
2023/01/03 07:26:44;;;;;;;2.05;0.25;;;20.40;44.60;;;;;;6090734;29;20060;-49
2023/01/03 07:29:46;;;;;;;0.10;0.10;;;20.60;44.70;;;;;;6094577;29;20056;-49
2023/01/03 07:32:47;;;;;;;0.47;0.20;;;20.50;44.70;;;;;;6089655;29;20052;-49
2023/01/03 07:35:48;;;;;;;0.73;0.20;;;20.60;44.80;;;;;;6092825;29;20047;-48
2023/01/03 07:38:50;;;;;;;1.65;0.28;;;20.40;44.70;;;;;;6090776;29;20374;-50
2023/01/03 07:45:06;;;;;;;0.80;0.50;;;20.40;44.80;;;;;;6090145;29;20052;-49
2023/01/03 07:48:09;;;;;;;1.48;0.30;;;20.50;44.90;;;;;;6099099;29;20040;-50
2023/01/03 07:51:12;;;;;;;0.35;0.25;;;20.50;45.00;;;;;;6079554;29;20051;-50
2023/01/03 07:54:14;;;;;;;0.70;0.30;;;20.50;45.10;;;;;;6096602;29;20048;-49
2023/01/03 07:57:16;;;;;;;0.47;0.40;;;20.60;45.10;;;;;;6089463;29;20048;-48
2023/01/03 08:00:17;;;;;;;;;;;20.60;45.20;;;;;;6102522;29;20068;-48
2023/01/03 08:03:19;;;;;;;0.40;0.30;;;20.70;45.50;;;;;;6092063;29;19927;-50
2023/01/03 08:06:22;;;;;;;1.17;0.40;;;20.70;45.40;;;;;;6082944;29;20526;-47
2023/01/03 08:15:56;;;;;;;0.40;0.38;;;20.60;45.60;;;;;;6095529;29;20037;-50
2023/01/03 08:18:58;;;;;;;1.02;0.30;;;20.50;45.60;;;;;;6198496;23;20889;-47
2023/01/03 08:21:59;;;;;;;1.05;0.35;;;20.90;45.90;;;;;;6082409;29;20062;-48
2023/01/03 08:25:02;;;;;;;0.20;0.10;;;20.70;46.10;;;;;;6198690;23;20463;-49
2023/01/03 08:28:05;;;;;;;0.68;0.20;;;20.80;46.30;;;;;;6096471;29;20124;-45
2023/01/03 08:31:10;;;;;;;1.13;0.25;;;20.70;45.60;;;;;;6073282;29;20127;-43
2023/01/03 08:34:13;;;;;;;0.50;0.20;;;20.70;45.70;;;;;;6095504;29;20045;-46
2023/01/03 08:37:21;;;;;;;1.08;0.30;;;20.80;45.80;;;;;;6092171;29;20139;-48
2023/01/03 08:40:22;;;;;;;;;;;20.40;45.60;;;;;;6089524;29;20524;-48
2023/01/03 08:43:27;;;;;;;0.75;0.30;;;20.50;45.80;;;;;;6091983;29;19939;-46
2023/01/03 08:46:29;;;;;;;1.35;0.32;;;20.80;45.80;;;;;;6091933;29;20052;-48
2023/01/03 08:49:31;;;;;;;0.30;0.20;;;20.80;46.00;;;;;;6087024;29;20044;-46
2023/01/03 08:52:33;;;;;;;0.43;0.28;;;20.70;46.00;;;;;;6092746;29;20060;-49
2023/01/03 08:55:38;;;;;;;0.38;0.20;;;20.80;46.20;;;;;;6089079;29;20049;-46
2023/01/03 08:58:39;;;;;;;0.75;0.30;;;20.90;46.30;;;;;;6087320;29;20060;-45
2023/01/03 09:01:41;;;;;;;0.20;0.20;;;20.80;46.30;;;;;;6089776;29;20056;-45
2023/01/03 09:04:43;;;;;;;0.70;0.28;;;20.90;46.50;;;;;;6086086;29;20068;-44
2023/01/03 09:07:44;;;;;;;0.52;0.25;;;20.90;46.50;;;;;;6086811;29;20044;-44
2023/01/03 09:10:47;;;;;;;;;;;20.90;46.60;;;;;;6086979;29;20056;-43
2023/01/03 09:13:49;;;;;;;0.57;0.38;;;21.00;46.70;;;;;;6092706;29;19927;-46
2023/01/03 09:16:50;;;;;;;;;;;21.10;46.60;;;;;;6085424;29;20100;-45
2023/01/03 09:19:52;;;;;;;;;;;20.90;46.60;;;;;;6086607;29;19924;-48
2023/01/03 09:22:53;;;;;;;0.65;0.40;;;20.90;46.50;;;;;;6084087;29;19923;-47
2023/01/03 09:25:56;;;;;;;0.95;0.60;;;21.00;46.50;;;;;;6082390;29;20045;-45
2023/01/03 09:28:57;;;;;;;0.50;0.20;;;20.90;46.60;;;;;;6081806;29;20044;-45
2023/01/03 09:32:02;;;;;;;0.75;0.35;;;21.00;46.80;;;;;;6081452;29;20099;-44
2023/01/03 09:35:04;;;;;;;0.90;0.40;;;20.90;46.80;;;;;;6083139;29;20049;-46
2023/01/03 09:38:05;;;;;;;0.82;0.32;;;21.10;47.00;;;;;;6083310;29;20051;-45
2023/01/03 09:41:23;;;;;;;2.10;0.30;;;21.10;47.10;;;;;;6084578;29;20052;-47
2023/01/03 09:44:25;;;;;;;0.40;0.40;;;21.00;47.20;;;;;;6085233;29;20124;-45
2023/01/03 09:47:26;;;;;;;;;;;21.10;47.30;;;;;;6093387;29;20045;-46
2023/01/03 09:50:31;;;;;;;0.50;0.30;;;21.10;47.40;;;;;;6096109;29;20077;-45
2023/01/03 10:04:06;;;;;;;0.60;0.30;;;20.90;47.30;;;;;;6067250;29;20040;-44
2023/01/03 10:07:20;;;;;;;1.23;0.40;;;21.20;47.50;;;;;;6085653;29;20069;-47
2023/01/03 10:10:30;;;;;;;0.52;0.30;;;21.20;47.50;;;;;;6090800;29;20409;-49
2023/01/03 10:13:50;;;;;;;0.57;0.20;;;21.30;47.60;;;;;;6698492;23;20056;-44
2023/01/03 10:16:55;;;;;;;0.50;0.20;;;21.20;47.50;;;;;;6170932;23;20037;-48
2023/01/03 10:20:17;;;;;;;1.08;0.52;;;21.20;47.40;;;;;;6026680;29;20061;-47
2023/01/03 10:23:19;;;;;;;0.35;0.22;;;21.30;47.60;;;;;;6015094;29;20046;-44
2023/01/03 10:26:23;;;;;;;0.75;0.15;;;21.30;47.60;;;;;;6016550;29;20046;-47
2023/01/03 10:29:32;;;;;;;0.20;0.20;;;21.30;47.70;;;;;;6022941;29;20141;-45
2023/01/03 10:32:53;;;;;;;0.40;0.22;;;21.40;47.80;;;;;;6021377;29;20050;-48
2023/01/03 10:35:55;;;;;;;0.75;0.20;;;21.10;47.70;;;;;;6013313;29;20054;-48
2023/01/03 10:39:07;;;;;;;2.20;0.17;;;21.30;47.70;;;;;;6020939;29;20106;-46
2023/01/03 10:42:16;;;;;;;0.35;0.20;;;21.40;47.90;;;;;;6020293;29;20079;-51
2023/01/03 10:45:20;;;;;;;0.30;0.20;;;21.30;47.80;;;;;;6015212;29;20096;-43
2023/01/03 10:48:22;;;;;;;0.20;0.20;;;21.50;48.00;;;;;;6013610;29;20045;-48
2023/01/03 10:51:30;;;;;;;1.90;0.20;;;21.40;47.90;;;;;;6027261;29;20050;-50
2023/01/03 10:54:45;;;;;;;0.63;0.40;;;21.50;48.00;;;;;;6017346;29;20388;-45
2023/01/03 10:57:58;;;;;;;0.40;0.20;;;21.50;48.10;;;;;;6013389;29;20457;-51
2023/01/03 11:01:18;;;;;;;3.75;0.25;;;21.20;47.90;;;;;;6025899;29;20125;-51
2023/01/03 11:04:19;;;;;;;1.08;0.20;;;21.70;48.30;;;;;;6293445;23;20994;-48
2023/01/03 11:07:21;;;;;;;0.20;0.20;;;21.30;48.10;;;;;;6080322;29;20056;-47
2023/01/03 11:10:25;;;;;;;0.30;0.20;;;21.30;48.10;;;;;;6082054;29;20053;-44
2023/01/03 11:13:32;;;;;;;0.60;0.20;;;21.40;48.10;;;;;;6077160;29;20045;-49
2023/01/03 11:16:35;;;;;;;0.73;0.30;;;21.50;48.10;;;;;;6077886;29;20041;-47
2023/01/03 11:19:36;;;;;;;0.40;0.20;;;21.50;48.10;;;;;;6058817;29;20049;-50
2023/01/03 11:22:41;;;;;;;;;;;21.50;48.20;;;;;;6073914;29;20041;-49
2023/01/03 11:25:48;;;;;;;0.50;0.20;;;21.50;48.20;;;;;;6059586;29;19931;-50
2023/01/03 11:29:01;;;;;;;0.35;0.20;;;21.50;48.10;;;;;;6074048;29;20045;-51
2023/01/03 11:32:15;;;;;;;0.65;0.22;;;21.60;48.20;;;;;;6075616;29;20053;-50
2023/01/03 11:35:33;;;;;;;0.40;0.20;;;21.60;48.20;;;;;;6078388;29;20033;-50
2023/01/03 11:38:47;;;;;;;0.35;0.22;;;21.50;48.20;;;;;;6079386;29;20064;-50
2023/01/03 11:42:05;;;;;;;0.52;0.30;;;21.50;48.20;;;;;;6080346;29;20029;-51
2023/01/03 11:45:30;;;;;;;0.50;0.20;;;21.60;48.20;;;;;;6088278;29;20506;-51
2023/01/03 11:48:58;;;;;;;0.95;0.30;;;21.50;48.20;;;;;;6420623;23;20061;-50
2023/01/03 11:52:17;;;;;;;0.55;0.22;;;21.50;48.20;;;;;;6166340;23;20048;-51
2023/01/03 11:55:40;;;;;;;0.65;0.38;;;21.60;48.20;;;;;;6067390;29;20052;-51
2023/01/03 11:59:02;;;;;;;0.40;0.30;;;21.60;48.20;;;;;;6076768;29;20056;-51
2023/01/03 12:02:25;;;;;;;0.50;0.20;;;21.60;48.20;;;;;;6065082;29;20072;-48
2023/01/03 12:05:40;;;;;;;0.38;0.20;;;21.70;48.30;;;;;;6086852;29;20052;-49
2023/01/03 12:08:55;;;;;;;0.60;0.30;;;21.70;48.30;;;;;;6071943;29;20053;-48
2023/01/03 12:12:12;;;;;;;0.50;0.40;;;21.60;48.20;;;;;;6055483;29;20053;-51
2023/01/03 12:15:19;;;;;;;2.03;0.30;;;21.60;48.30;;;;;;6061690;29;20049;-48
2023/01/03 12:18:27;;;;;;;0.85;0.30;;;21.60;48.30;;;;;;6064444;29;20049;-50
2023/01/03 12:21:35;;;;;;;0.40;0.30;;;21.60;48.40;;;;;;6096913;23;20048;-51
2023/01/03 12:24:43;;;;;;;0.95;0.30;;;21.70;49.10;;;;;;6047485;29;20045;-46
2023/01/03 12:27:51;;;;;;;3.13;0.30;;;21.70;48.50;;;;;;6065454;29;20081;-51
2023/01/03 12:30:57;;;;;;;0.40;0.20;;;21.50;48.30;;;;;;6061813;29;20041;-51
2023/01/03 12:48:41;;;;;;;0.75;0.30;;;19.70;46.70;;;;;;6280632;23;20037;-51
2023/01/03 12:51:43;;;;;;;0.70;0.40;;;21.70;47.60;;;;;;6417217;23;20053;-50
2023/01/03 12:54:50;;;;;;;0.38;0.20;;;21.70;47.60;;;;;;6388673;23;20047;-49
2023/01/03 13:01:23;;;;;;;0.43;0.30;;;21.80;47.40;;;;;;6521764;23;20053;-49
2023/01/03 13:04:32;;;;;;;0.50;0.20;;;21.90;47.20;;;;;;6061419;29;20033;-52
2023/01/03 13:18:29;;;;;;;0.63;0.17;;;21.80;46.80;;;;;;6827446;23;20049;-46
2023/01/03 13:25:31;;;;;;;0.20;0.20;;;21.80;46.50;;;;;;7266000;23;20724;-49
2023/01/03 13:28:34;;;;;;;0.40;0.25;;;22.10;46.60;;;;;;6175132;23;20053;-49
2023/01/03 13:31:39;;;;;;;0.85;0.30;;;21.80;46.30;;;;;;6053602;29;20056;-50
2023/01/03 13:41:45;;;;;;;0.20;0.10;;;22.00;46.30;;;;;;7408848;23;20024;-50
2023/01/03 13:44:48;;;;;;;1.45;0.75;;;22.00;46.50;;;;;;6003243;29;20051;-48
2023/01/03 13:47:51;;;;;;;0.65;0.25;;;22.00;46.30;;;;;;5998057;29;20054;-47
2023/01/03 13:51:06;;;;;;;0.50;0.38;;;22.00;46.40;;;;;;5998592;29;20051;-49
2023/01/03 13:54:25;;;;;;;1.15;0.30;;;21.80;46.20;;;;;;6085007;23;20056;-50
2023/01/03 14:08:29;;;;;;;0.57;0.30;;;21.90;46.30;;;;;;7161960;23;20049;-52
2023/01/03 14:22:11;;;;;;;0.73;0.20;;;21.80;46.20;;;;;;6496830;23;20064;-49
2023/01/03 14:32:39;;;;;;;0.65;0.22;;;21.80;46.20;;;;;;7019458;23;20068;-49
2023/01/03 14:35:43;;;;;;;0.40;0.30;;;21.80;46.20;;;;;;6084371;29;20471;-52
2023/01/03 14:38:47;;;;;;;0.73;0.40;;;21.80;46.20;;;;;;6066793;29;20510;-51
2023/01/03 14:41:49;;;;;;;1.05;0.43;;;22.00;46.20;;;;;;6067809;29;20052;-48
2023/01/03 14:44:54;;;;;;;0.57;0.40;;;22.00;46.20;;;;;;6085447;29;20056;-50
2023/01/03 14:47:56;;;;;;;1.88;0.50;;;22.00;46.20;;;;;;6084085;29;20041;-49
2023/01/03 14:51:00;;;;;;;1.02;0.30;;;22.00;46.10;;;;;;6082582;29;20052;-51
2023/01/03 14:54:03;;;;;;;1.17;0.38;;;22.00;46.10;;;;;;6083587;29;20449;-53
2023/01/03 14:57:04;;;;;;;1.60;0.60;;;22.10;46.10;;;;;;6085136;29;20060;-51
2023/01/03 15:00:14;;;;;;;1.02;0.50;;;22.10;46.10;;;;;;6091381;29;20056;-52
2023/01/03 15:03:17;;;;;;;0.93;0.30;;;22.00;46.10;;;;;;6096872;29;20032;-52
2023/01/03 15:06:21;;;;;;;2.63;0.30;;;22.10;46.20;;;;;;6187073;23;20037;-51
2023/01/03 15:09:24;;;;;;;1.67;0.30;;;22.00;46.20;;;;;;6071330;29;20155;-51
2023/01/03 15:12:27;;;;;;;0.65;0.35;;;22.00;46.20;;;;;;6159176;23;20108;-55
2023/01/03 15:15:36;;;;;;;0.65;0.30;;;21.90;46.10;;;;;;6090313;29;20040;-50
2023/01/03 15:18:45;;;;;;;1.02;0.40;;;22.00;46.20;;;;;;6070476;29;20045;-52
2023/01/03 15:21:47;;;;;;;1.05;0.50;;;22.10;46.30;;;;;;6098646;29;20059;-50
2023/01/03 15:24:53;;;;;;;1.10;0.50;;;22.00;46.30;;;;;;6432682;23;20072;-51
2023/01/03 15:27:56;;;;;;;0.73;0.40;;;22.10;46.40;;;;;;6065404;29;20421;-47
2023/01/03 15:31:11;;;;;;;1.02;0.35;;;22.10;46.60;;;;;;6082769;29;20052;-51
2023/01/03 15:34:16;;;;;;;1.13;0.25;;;22.10;46.40;;;;;;6082228;29;20116;-48
2023/01/03 15:37:21;;;;;;;1.30;0.30;;;22.00;46.40;;;;;;6085856;29;20056;-50
2023/01/03 15:40:23;;;;;;;1.02;0.40;;;22.10;46.40;;;;;;6068581;29;20059;-52
2023/01/03 15:43:31;;;;;;;0.70;0.30;;;22.10;46.40;;;;;;6084762;29;20063;-51
2023/01/03 15:46:33;;;;;;;0.75;0.47;;;22.10;46.40;;;;;;6084341;29;20505;-50
2023/01/03 15:49:40;;;;;;;0.88;0.40;;;22.10;46.40;;;;;;6086514;29;20501;-53
2023/01/03 15:52:41;;;;;;;3.20;0.45;;;22.10;46.40;;;;;;6071102;29;20051;-53
2023/01/03 15:55:43;;;;;;;;;;;22.10;46.50;;;;;;6089466;29;20056;-50
2023/01/03 15:58:45;;;;;;;0.75;0.20;;;22.10;46.50;;;;;;6086665;29;19924;-50
2023/01/03 16:01:47;;;;;;;2.25;0.40;;;22.00;46.40;;;;;;6090509;29;20086;-51
2023/01/03 16:04:50;;;;;;;1.42;0.50;;;22.20;46.60;;;;;;6085346;29;20121;-51
2023/01/03 16:07:51;;;;;;;2.17;0.65;;;22.40;46.60;;;;;;6087780;29;20048;-51
2023/01/03 16:10:53;;;;;;;;;;;22.10;46.50;;;;;;6072405;29;20139;-53
2023/01/03 16:13:58;;;;;;;1.80;0.40;;;21.90;46.40;;;;;;6087710;29;19931;-51
2023/01/03 16:17:00;;;;;;;1.38;0.40;;;22.10;46.60;;;;;;6081110;29;20462;-53
2023/01/03 16:20:02;;;;;;;2.05;0.60;;;22.10;46.60;;;;;;6081654;29;20127;-52
2023/01/03 16:23:04;;;;;;;1.02;0.25;;;22.00;46.50;;;;;;6082748;29;20037;-54
2023/01/03 16:26:06;;;;;;;3.42;0.60;;;22.10;46.60;;;;;;6089581;29;20041;-53
2023/01/03 16:29:08;;;;;;;1.45;0.20;;;22.00;46.50;;;;;;6097570;29;20509;-47
2023/01/03 16:32:16;;;;;;;;;;;22.00;46.60;;;;;;6084021;29;20041;-51
2023/01/03 16:35:19;;;;;;;0.93;0.45;;;22.00;46.60;;;;;;6067272;29;20392;-52
2023/01/03 16:38:24;;;;;;;1.92;0.50;;;22.00;46.60;;;;;;6088991;29;20406;-51
2023/01/03 16:41:25;;;;;;;0.80;0.40;;;22.00;46.60;;;;;;6103195;29;20040;-53
2023/01/03 16:44:27;;;;;;;1.10;0.43;;;21.90;46.60;;;;;;6093135;29;20076;-52
2023/01/03 16:47:30;;;;;;;;;;;21.90;46.60;;;;;;6229061;23;20040;-52
2023/01/03 16:50:36;;;;;;;2.58;0.57;;;21.90;47.30;;;;;;6083038;29;19974;-50
2023/01/03 16:53:39;;;;;;;1.75;0.30;;;21.70;46.60;;;;;;6084291;29;20048;-49
2023/01/03 16:56:41;;;;;;;2.13;0.60;;;22.00;46.80;;;;;;6094825;29;20061;-52
2023/01/03 16:59:42;;;;;;;0.50;0.30;;;22.00;46.90;;;;;;6087520;29;20048;-52
2023/01/03 17:02:44;;;;;;;3.13;0.57;;;21.90;46.90;;;;;;6073076;29;20045;-51
2023/01/03 17:05:48;;;;;;;0.95;0.38;;;21.90;46.90;;;;;;6082542;29;20044;-51
2023/01/03 17:08:50;;;;;;;0.43;0.30;;;21.80;46.90;;;;;;6069033;29;20064;-52
2023/01/03 17:11:52;;;;;;;0.60;0.30;;;21.90;47.00;;;;;;6083961;29;20105;-51
2023/01/03 17:14:54;;;;;;;1.63;0.50;;;21.90;47.10;;;;;;6086316;29;20076;-52
2023/01/03 17:17:55;;;;;;;1.52;0.40;;;21.90;47.10;;;;;;6084023;29;20052;-51
2023/01/03 17:20:58;;;;;;;;;;;21.90;47.20;;;;;;6083725;29;20056;-49
2023/01/03 17:24:03;;;;;;;0.50;0.32;;;21.90;47.20;;;;;;6086474;29;20380;-52
2023/01/03 17:27:14;;;;;;;1.08;0.40;;;21.80;47.20;;;;;;6070198;29;20092;-49
2023/01/03 17:30:19;;;;;;;0.52;0.30;;;21.80;47.20;;;;;;6083301;29;20072;-51
2023/01/03 17:33:22;;;;;;;1.13;0.28;;;21.60;47.20;;;;;;6084545;29;20496;-51
2023/01/03 17:36:26;;;;;;;0.63;0.30;;;21.60;47.20;;;;;;6089450;23;20048;-49
2023/01/03 17:39:27;;;;;;;0.80;0.50;;;21.70;47.40;;;;;;6067389;29;20052;-52
2023/01/03 17:42:30;;;;;;;2.03;0.32;;;21.70;47.40;;;;;;6085520;29;20044;-47
2023/01/03 17:52:05;;;;;;;0.82;0.40;;;21.70;47.60;;;;;;6087796;29;20048;-50
2023/01/03 17:55:18;;;;;;;0.40;0.20;;;21.50;47.50;;;;;;6091341;29;20037;-52
2023/01/03 17:58:24;;;;;;;0.90;0.30;;;21.70;47.70;;;;;;6088335;29;20045;-48
2023/01/03 18:01:25;;;;;;;0.68;0.50;;;21.60;47.70;;;;;;6084962;29;20052;-50
2023/01/03 18:04:27;;;;;;;0.43;0.32;;;21.70;47.80;;;;;;6088691;29;20049;-51
2023/01/03 18:07:49;;;;;;;0.70;0.30;;;21.70;48.50;;;;;;6072165;29;20561;-47
2023/01/03 18:10:52;;;;;;;0.75;0.30;;;21.70;47.90;;;;;;6084119;29;20403;-51
2023/01/03 18:13:53;;;;;;;0.85;0.30;;;21.70;48.00;;;;;;6088707;29;20056;-50
2023/01/03 18:16:55;;;;;;;0.45;0.32;;;21.70;48.10;;;;;;6086496;29;20048;-52
2023/01/03 18:19:57;;;;;;;0.30;0.20;;;21.70;48.20;;;;;;6086221;29;20523;-52
2023/01/03 18:41:27;;;;;;;1.08;0.40;;;20.90;48.30;;;;;;7444339;23;20027;31
2023/01/03 19:09:02;;;;;;;0.80;0.30;;;21.50;49.50;;;;;;6792137;23;20057;-51
2023/01/03 19:15:34;;;;;;;0.30;0.20;;;21.40;49.80;;;;;;7326017;23;20024;-51